createdAt,value
2023-02-19T00:01:23.244Z,9.42
2023-02-19T00:03:53.307Z,9.39
2023-02-19T00:06:21.487Z,9.47
2023-02-19T00:08:48.428Z,9.48
2023-02-19T00:11:20.283Z,9.54
2023-02-19T00:13:51.033Z,9.57
2023-02-19T00:16:23.096Z,9.59
2023-02-19T00:18:50.349Z,9.59
2023-02-19T00:21:17.534Z,9.60
2023-02-19T00:23:48.082Z,9.62
2023-02-19T00:26:18.451Z,9.60
2023-02-19T00:28:48.813Z,9.57
2023-02-19T00:31:18.027Z,9.61
2023-02-19T00:33:45.914Z,9.62
2023-02-19T00:36:13.395Z,9.62
2023-02-19T00:38:41.985Z,9.64
2023-02-19T00:41:21.637Z,9.61
2023-02-19T00:43:56.656Z,9.62
2023-02-19T00:46:26.698Z,9.66
2023-02-19T00:48:53.894Z,9.70
2023-02-19T00:51:22.552Z,9.70
2023-02-19T00:53:49.450Z,9.66
2023-02-19T00:56:16.535Z,9.70
2023-02-19T00:58:43.060Z,9.69
2023-02-19T01:01:11.639Z,9.75
2023-02-19T01:03:39.050Z,9.78
2023-02-19T01:06:08.417Z,9.79
2023-02-19T01:08:35.956Z,9.81
2023-02-19T01:11:05.106Z,9.82
2023-02-19T01:13:32.527Z,9.77
2023-02-19T01:16:19.810Z,9.83
2023-02-19T01:18:47.647Z,9.80
2023-02-19T01:21:23.852Z,9.82
2023-02-19T01:23:51.285Z,9.82
2023-02-19T01:26:23.662Z,9.84
2023-02-19T01:28:50.536Z,9.83
2023-02-19T01:31:20.718Z,9.82
2023-02-19T01:33:49.217Z,9.82
2023-02-19T01:36:16.444Z,9.81
2023-02-19T01:38:43.386Z,9.80
2023-02-19T01:41:13.261Z,9.80
2023-02-19T01:44:04.187Z,9.76
2023-02-19T01:46:33.361Z,9.77
2023-02-19T01:49:06.108Z,9.74
2023-02-19T01:51:35.289Z,9.68
2023-02-19T01:54:05.392Z,9.63
2023-02-19T01:56:34.827Z,9.59
2023-02-19T01:59:02.020Z,9.58
2023-02-19T02:01:28.690Z,9.56
2023-02-19T02:03:55.470Z,9.54
2023-02-19T02:06:29.529Z,9.56
2023-02-19T02:09:16.009Z,9.55
2023-02-19T02:11:47.700Z,9.51
2023-02-19T02:14:17.220Z,9.54
2023-02-19T02:17:01.956Z,9.55
2023-02-19T02:20:03.283Z,9.56
2023-02-19T02:22:46.156Z,9.55
2023-02-19T02:25:19.382Z,9.54
2023-02-19T02:28:23.340Z,9.55
2023-02-19T02:31:02.703Z,9.54
2023-02-19T02:33:48.656Z,9.54
2023-02-19T02:36:20.392Z,9.55
2023-02-19T02:38:48.708Z,9.53
2023-02-19T02:41:16.210Z,9.52
2023-02-19T02:43:42.762Z,9.50
2023-02-19T02:46:12.250Z,9.49
2023-02-19T02:48:56.507Z,9.50
2023-02-19T02:51:27.225Z,9.50
2023-02-19T02:54:39.361Z,9.45
2023-02-19T02:57:14.694Z,9.50
2023-02-19T02:59:49.062Z,9.49
2023-02-19T03:02:24.671Z,9.49
2023-02-19T03:05:36.128Z,9.47
2023-02-19T03:08:20.412Z,9.47
2023-02-19T03:11:19.879Z,9.46
2023-02-19T03:14:06.099Z,9.46
2023-02-19T03:16:56.319Z,9.44
2023-02-19T03:19:27.401Z,9.42
2023-02-19T03:22:00.178Z,9.40
2023-02-19T03:24:51.091Z,9.34
2023-02-19T03:27:20.944Z,9.25
2023-02-19T03:29:54.549Z,9.31
2023-02-19T03:32:29.693Z,9.31
2023-02-19T03:35:13.721Z,9.26
2023-02-19T03:38:29.783Z,9.28
2023-02-19T03:41:09.623Z,9.30
2023-02-19T03:44:02.972Z,9.29
2023-02-19T03:47:03.643Z,9.27
2023-02-19T03:49:47.923Z,9.26
2023-02-19T03:52:41.445Z,9.26
2023-02-19T03:55:17.888Z,9.23
2023-02-19T03:57:58.325Z,9.21
2023-02-19T04:00:31.638Z,9.17
2023-02-19T04:03:29.192Z,9.15
2023-02-19T04:06:01.836Z,9.10
2023-02-19T04:08:31.536Z,9.06
2023-02-19T04:11:07.400Z,8.98
2023-02-19T04:13:45.795Z,9.01
2023-02-19T04:16:20.412Z,8.98
2023-02-19T04:18:51.342Z,8.91
2023-02-19T04:21:20.421Z,8.95
2023-02-19T04:23:47.700Z,8.93
2023-02-19T04:26:16.422Z,8.90
2023-02-19T04:28:44.152Z,8.86
2023-02-19T04:31:11.654Z,8.87
2023-02-19T04:33:38.401Z,8.86
2023-02-19T04:36:05.363Z,8.82
2023-02-19T04:38:31.776Z,8.81
2023-02-19T04:40:58.338Z,8.76
2023-02-19T04:43:24.769Z,8.71
2023-02-19T04:45:51.208Z,8.71
2023-02-19T04:48:17.637Z,8.67
2023-02-19T04:50:44.046Z,8.61
2023-02-19T04:53:10.463Z,8.60
2023-02-19T04:55:38.180Z,8.56
2023-02-19T04:58:04.792Z,8.50
2023-02-19T05:00:31.752Z,8.46
2023-02-19T05:02:58.203Z,8.44
2023-02-19T05:05:24.625Z,8.42
2023-02-19T05:07:51.013Z,8.39
2023-02-19T05:10:17.538Z,8.37
2023-02-19T05:12:43.958Z,8.34
2023-02-19T05:15:10.399Z,8.30
2023-02-19T05:17:36.836Z,8.30
2023-02-19T05:20:03.620Z,8.28
2023-02-19T05:22:30.242Z,8.25
2023-02-19T05:24:56.636Z,8.20
2023-02-19T05:27:23.054Z,8.14
2023-02-19T05:29:49.439Z,8.15
2023-02-19T05:32:15.956Z,8.13
2023-02-19T05:34:42.414Z,8.11
2023-02-19T05:37:08.830Z,8.10
2023-02-19T05:39:35.313Z,8.08
2023-02-19T05:42:01.732Z,8.06
2023-02-19T05:44:28.168Z,8.05
2023-02-19T05:46:54.560Z,8.02
2023-02-19T05:49:20.937Z,8.01
2023-02-19T05:51:50.760Z,8.00
2023-02-19T05:54:17.171Z,7.99
2023-02-19T05:56:43.620Z,7.97
2023-02-19T05:59:21.606Z,7.96
2023-02-19T06:01:50.008Z,7.94
2023-02-19T06:04:17.173Z,7.94
2023-02-19T06:06:43.728Z,7.93
2023-02-19T06:09:10.967Z,7.86
2023-02-19T06:11:37.633Z,7.88
2023-02-19T06:14:05.108Z,7.88
2023-02-19T06:16:33.596Z,7.87
2023-02-19T06:19:03.771Z,7.86
2023-02-19T06:21:30.270Z,7.86
2023-02-19T06:23:56.692Z,7.83
2023-02-19T06:26:24.912Z,7.83
2023-02-19T06:28:53.156Z,7.84
2023-02-19T06:31:22.346Z,7.83
2023-02-19T06:33:50.546Z,7.83
2023-02-19T06:36:19.693Z,7.86
2023-02-19T06:38:46.424Z,7.84
2023-02-19T06:41:13.512Z,7.84
2023-02-19T06:43:40.532Z,7.81
2023-02-19T06:46:07.861Z,7.76
2023-02-19T06:48:34.855Z,7.76
2023-02-19T06:51:01.302Z,7.69
2023-02-19T06:53:27.804Z,7.68
2023-02-19T06:55:57.345Z,7.66
2023-02-19T06:58:23.833Z,7.65
2023-02-19T07:00:50.304Z,7.64
2023-02-19T07:03:16.760Z,7.64
2023-02-19T07:05:43.839Z,7.62
2023-02-19T07:08:10.311Z,7.54
2023-02-19T07:10:36.714Z,7.50
2023-02-19T07:13:03.172Z,7.47
2023-02-19T07:15:29.814Z,7.44
2023-02-19T07:17:56.210Z,7.42
2023-02-19T07:20:22.614Z,7.38
2023-02-19T07:22:49.006Z,7.34
2023-02-19T07:25:15.472Z,7.33
2023-02-19T07:27:41.889Z,7.18
2023-02-19T07:30:08.958Z,7.33
2023-02-19T07:32:35.376Z,7.38
2023-02-19T07:35:01.767Z,7.38
2023-02-19T07:37:28.241Z,7.40
2023-02-19T07:39:54.616Z,7.41
2023-02-19T07:42:21.015Z,7.43
2023-02-19T07:44:47.432Z,7.46
2023-02-19T07:47:13.826Z,7.41
2023-02-19T07:49:40.201Z,7.47
2023-02-19T07:52:06.613Z,7.48
2023-02-19T07:54:33.030Z,7.52
2023-02-19T07:56:59.738Z,7.53
2023-02-19T07:59:26.129Z,7.57
2023-02-19T08:02:11.237Z,7.60
2023-02-19T08:04:37.686Z,7.65
2023-02-19T08:07:05.324Z,7.70
2023-02-19T08:09:33.283Z,7.73
2023-02-19T08:12:18.408Z,7.73
2023-02-19T08:14:44.852Z,7.79
2023-02-19T08:17:11.312Z,7.81
2023-02-19T08:19:37.857Z,7.84
2023-02-19T08:22:04.273Z,7.87
2023-02-19T08:24:33.700Z,7.91
2023-02-19T08:27:00.124Z,7.93
2023-02-19T08:29:26.630Z,7.97
2023-02-19T08:31:53.106Z,7.93
2023-02-19T08:34:19.524Z,7.95
2023-02-19T08:36:45.914Z,7.95
2023-02-19T08:39:12.312Z,8.01
2023-02-19T08:41:38.754Z,8.01
2023-02-19T08:44:05.194Z,8.02
2023-02-19T08:46:33.482Z,8.01
2023-02-19T08:49:00.761Z,8.02
2023-02-19T08:51:27.252Z,8.01
2023-02-19T08:53:53.637Z,8.06
2023-02-19T08:56:20.117Z,8.07
2023-02-19T08:58:46.608Z,8.02
2023-02-19T09:01:15.683Z,8.01
2023-02-19T09:03:42.717Z,8.01
2023-02-19T09:06:16.149Z,8.01
2023-02-19T09:08:42.621Z,7.97
2023-02-19T09:11:09.287Z,7.99
2023-02-19T09:13:35.872Z,7.99
2023-02-19T09:16:05.928Z,8.01
2023-02-19T09:18:32.531Z,8.06
2023-02-19T09:21:04.598Z,8.16
2023-02-19T09:23:35.324Z,8.14
2023-02-19T09:26:06.525Z,8.17
2023-02-19T09:28:33.103Z,8.15
2023-02-19T09:31:07.296Z,8.12
2023-02-19T09:33:33.752Z,8.04
2023-02-19T09:36:02.835Z,7.99
2023-02-19T09:38:30.820Z,7.96
2023-02-19T09:40:58.899Z,7.96
2023-02-19T09:43:29.091Z,8.07
2023-02-19T09:46:02.971Z,8.16
2023-02-19T09:48:29.543Z,8.18
2023-02-19T09:50:57.961Z,8.24
2023-02-19T09:53:33.789Z,8.26
2023-02-19T09:56:01.377Z,8.28
2023-02-19T09:58:33.361Z,8.29
2023-02-19T10:01:03.384Z,8.29
2023-02-19T10:03:34.866Z,8.30
2023-02-19T10:06:24.690Z,8.32
2023-02-19T10:09:18.157Z,8.32
2023-02-19T10:11:45.032Z,8.32
2023-02-19T10:14:21.955Z,8.32
2023-02-19T10:16:50.145Z,8.32
2023-02-19T10:19:16.962Z,8.34
2023-02-19T10:21:44.104Z,8.35
2023-02-19T10:24:21.206Z,8.37
2023-02-19T10:26:49.416Z,8.44
2023-02-19T10:29:15.853Z,8.49
2023-02-19T10:31:42.440Z,8.54
2023-02-19T10:34:19.343Z,8.64
2023-02-19T10:36:48.519Z,8.70
2023-02-19T10:39:29.704Z,8.72
2023-02-19T10:41:56.237Z,8.70
2023-02-19T10:44:29.320Z,8.76
2023-02-19T10:46:58.948Z,9.06
2023-02-19T10:49:40.157Z,9.35
2023-02-19T10:52:17.945Z,9.53
2023-02-19T10:54:46.032Z,9.57
2023-02-19T10:57:15.213Z,9.61
2023-02-19T10:59:51.526Z,9.66
2023-02-19T11:02:20.497Z,9.63
2023-02-19T11:05:18.183Z,9.65
2023-02-19T11:07:55.880Z,9.63
2023-02-19T11:10:28.659Z,9.61
2023-02-19T11:13:02.046Z,9.64
2023-02-19T11:15:32.156Z,9.64
2023-02-19T11:18:36.037Z,9.57
2023-02-19T11:21:05.398Z,9.60
2023-02-19T11:23:38.345Z,9.64
2023-02-19T11:26:07.178Z,9.64
2023-02-19T11:28:39.375Z,9.61
2023-02-19T11:31:27.049Z,9.66
2023-02-19T11:33:57.163Z,9.58
2023-02-19T11:36:23.538Z,9.57
2023-02-19T11:38:50.013Z,9.52
2023-02-19T11:41:41.709Z,9.51
2023-02-19T11:44:46.507Z,9.54
2023-02-19T11:47:45.361Z,9.58
2023-02-19T11:50:42.875Z,9.64
2023-02-19T11:53:29.681Z,9.65
2023-02-19T11:56:12.795Z,9.65
2023-02-19T11:59:00.659Z,9.60
2023-02-19T12:01:54.190Z,9.56
2023-02-19T12:04:55.936Z,9.49
2023-02-19T12:07:40.908Z,9.43
2023-02-19T12:10:21.058Z,9.44
2023-02-19T12:12:54.496Z,9.45
2023-02-19T12:15:39.701Z,9.52
2023-02-19T12:18:40.939Z,9.58
2023-02-19T12:21:33.867Z,9.62
2023-02-19T12:24:30.357Z,9.61
2023-02-19T12:27:24.502Z,9.59
2023-02-19T12:30:14.192Z,9.53
2023-02-19T12:33:09.303Z,9.42
2023-02-19T12:35:46.393Z,9.21
2023-02-19T12:38:33.366Z,9.10
2023-02-19T12:41:26.670Z,9.03
2023-02-19T12:43:58.745Z,9.06
2023-02-19T12:46:32.238Z,9.12
2023-02-19T12:49:05.634Z,9.20
2023-02-19T12:51:55.211Z,9.24
2023-02-19T12:54:34.715Z,9.29
2023-02-19T12:57:06.540Z,9.38
2023-02-19T12:59:43.788Z,9.42
2023-02-19T13:02:13.116Z,9.40
2023-02-19T13:04:55.914Z,9.34
2023-02-19T13:07:39.239Z,9.28
2023-02-19T13:10:33.791Z,9.22
2023-02-19T13:13:06.247Z,9.16
2023-02-19T13:15:42.173Z,9.10
2023-02-19T13:18:20.339Z,9.06
2023-02-19T13:20:48.844Z,9.00
2023-02-19T13:23:47.753Z,8.96
2023-02-19T13:26:45.344Z,8.93
2023-02-19T13:29:39.624Z,8.95
2023-02-19T13:32:29.985Z,8.91
2023-02-19T13:35:53.433Z,8.88
2023-02-19T13:38:20.502Z,8.83
2023-02-19T13:40:55.654Z,8.76
2023-02-19T13:43:34.701Z,8.75
2023-02-19T13:46:10.714Z,8.81
2023-02-19T13:48:39.234Z,8.87
2023-02-19T13:51:23.587Z,9.00
2023-02-19T13:54:00.477Z,9.06
2023-02-19T13:56:30.048Z,9.08
2023-02-19T13:58:57.812Z,9.12
2023-02-19T14:01:58.262Z,9.12
2023-02-19T14:04:41.907Z,9.15
2023-02-19T14:07:08.263Z,9.20
2023-02-19T14:09:43.947Z,9.26
2023-02-19T14:12:10.386Z,9.26
2023-02-19T14:14:53.410Z,9.29
2023-02-19T14:17:25.891Z,9.30
2023-02-19T14:19:56.326Z,9.32
2023-02-19T14:22:44.724Z,9.29
2023-02-19T14:25:30.805Z,9.23
2023-02-19T14:28:30.354Z,9.17
2023-02-19T14:31:01.295Z,9.11
2023-02-19T14:33:37.679Z,9.07
2023-02-19T14:36:20.034Z,9.02
2023-02-19T14:39:11.927Z,8.91
2023-02-19T14:41:41.142Z,8.85
2023-02-19T14:44:27.662Z,8.84
2023-02-19T14:47:09.575Z,8.84
2023-02-19T14:49:44.345Z,8.85
2023-02-19T14:52:20.408Z,8.83
2023-02-19T14:54:56.254Z,8.83
2023-02-19T14:57:35.727Z,8.80
2023-02-19T15:00:19.842Z,8.76
2023-02-19T15:02:46.319Z,8.72
2023-02-19T15:05:17.565Z,8.69
2023-02-19T15:07:44.404Z,8.65
2023-02-19T15:10:14.080Z,8.55
2023-02-19T15:12:52.355Z,8.46
2023-02-19T15:15:23.021Z,8.39
2023-02-19T15:17:50.998Z,8.35
2023-02-19T15:20:22.495Z,8.35
2023-02-19T15:22:49.518Z,8.34
2023-02-19T15:25:19.106Z,8.30
2023-02-19T15:27:45.780Z,8.25
2023-02-19T15:30:20.638Z,8.21
2023-02-19T15:32:56.106Z,8.13
2023-02-19T15:35:24.996Z,8.10
2023-02-19T15:37:52.750Z,8.04
2023-02-19T15:40:23.688Z,8.03
2023-02-19T15:42:50.143Z,7.97
2023-02-19T15:45:24.973Z,7.92
2023-02-19T15:48:03.602Z,7.85
2023-02-19T15:50:33.314Z,7.73
2023-02-19T15:53:09.219Z,7.64
2023-02-19T15:55:53.099Z,7.63
2023-02-19T15:58:22.173Z,7.59
2023-02-19T16:00:53.068Z,7.59
2023-02-19T16:03:23.075Z,7.59
2023-02-19T16:06:05.170Z,7.58
2023-02-19T16:08:36.707Z,7.59
2023-02-19T16:11:06.586Z,7.61
2023-02-19T16:13:34.919Z,7.60
2023-02-19T16:16:15.315Z,7.61
2023-02-19T16:18:47.653Z,7.60
2023-02-19T16:21:16.744Z,7.62
2023-02-19T16:23:45.309Z,7.62
2023-02-19T16:26:12.305Z,7.61
2023-02-19T16:28:40.925Z,7.62
2023-02-19T16:31:10.858Z,7.59
2023-02-19T16:33:48.206Z,7.63
2023-02-19T16:36:26.390Z,7.64
2023-02-19T16:39:08.623Z,7.64
2023-02-19T16:41:41.112Z,7.65
2023-02-19T16:44:37.460Z,7.67
2023-02-19T16:47:12.390Z,7.67
2023-02-19T16:49:38.850Z,7.69
2023-02-19T16:52:05.443Z,7.71
2023-02-19T16:54:31.885Z,7.72
2023-02-19T16:56:58.474Z,7.73
2023-02-19T16:59:24.864Z,7.76
2023-02-19T17:01:51.461Z,7.77
2023-02-19T17:04:17.902Z,7.78
2023-02-19T17:06:45.539Z,7.78
2023-02-19T17:09:12.049Z,7.78
2023-02-19T17:11:38.528Z,7.79
2023-02-19T17:14:05.012Z,7.80
2023-02-19T17:16:39.644Z,7.82
2023-02-19T17:19:14.289Z,7.82
2023-02-19T17:21:41.403Z,7.80
2023-02-19T17:24:07.918Z,7.82
2023-02-19T17:26:34.354Z,7.82
2023-02-19T17:29:04.316Z,7.84
2023-02-19T17:31:31.659Z,7.83
2023-02-19T17:33:58.975Z,7.84
2023-02-19T17:36:30.763Z,7.79
2023-02-19T17:38:59.134Z,7.79
2023-02-19T17:41:25.959Z,7.77
2023-02-19T17:43:52.411Z,7.80
2023-02-19T17:46:24.761Z,7.81
2023-02-19T17:48:51.562Z,7.81
2023-02-19T17:51:18.021Z,7.83
2023-02-19T17:53:46.444Z,7.84
2023-02-19T17:56:19.607Z,7.83
2023-02-19T17:58:46.222Z,7.82
2023-02-19T18:01:13.782Z,7.81
2023-02-19T18:03:40.411Z,7.81
2023-02-19T18:06:07.223Z,7.81
2023-02-19T18:08:33.667Z,7.81
2023-02-19T18:11:00.809Z,7.82
2023-02-19T18:13:27.262Z,7.84
2023-02-19T18:15:53.681Z,7.83
2023-02-19T18:18:23.113Z,7.82
2023-02-19T18:20:49.980Z,7.82
2023-02-19T18:23:16.558Z,7.81
2023-02-19T18:25:43.008Z,7.84
2023-02-19T18:28:09.471Z,7.84
2023-02-19T18:30:35.932Z,7.83
2023-02-19T18:33:02.426Z,7.81
2023-02-19T18:35:28.807Z,7.82
2023-02-19T18:37:55.839Z,7.83
2023-02-19T18:40:25.833Z,7.83
2023-02-19T18:42:52.352Z,7.81
2023-02-19T18:45:19.034Z,7.81
2023-02-19T18:47:47.284Z,7.82
2023-02-19T18:50:13.801Z,7.83
2023-02-19T18:52:40.218Z,7.85
2023-02-19T18:55:07.184Z,7.88
2023-02-19T18:57:33.589Z,7.85
2023-02-19T18:59:59.959Z,7.84
2023-02-19T19:02:28.255Z,7.84
2023-02-19T19:04:57.072Z,7.82
2023-02-19T19:07:23.531Z,7.81
2023-02-19T19:09:50.245Z,7.80
2023-02-19T19:12:16.948Z,7.80
2023-02-19T19:14:44.665Z,7.77
2023-02-19T19:17:11.167Z,7.77
2023-02-19T19:19:37.620Z,7.79
2023-02-19T19:22:04.022Z,7.79
2023-02-19T19:24:30.407Z,7.80
2023-02-19T19:26:56.810Z,7.77
2023-02-19T19:29:23.617Z,7.76
2023-02-19T19:31:50.586Z,7.77
2023-02-19T19:34:17.574Z,7.78
2023-02-19T19:36:44.270Z,7.77
2023-02-19T19:39:10.856Z,7.76
2023-02-19T19:41:37.319Z,7.78
2023-02-19T19:44:05.834Z,7.76
2023-02-19T19:46:33.531Z,7.76
2023-02-19T19:49:00.153Z,7.78
2023-02-19T19:51:34.055Z,7.78
2023-02-19T19:54:03.005Z,7.76
2023-02-19T19:56:30.173Z,7.77
2023-02-19T19:58:56.580Z,7.74
2023-02-19T20:01:23.599Z,7.72
2023-02-19T20:03:51.100Z,7.71
2023-02-19T20:06:29.699Z,7.71
2023-02-19T20:08:56.531Z,7.69
2023-02-19T20:11:23.406Z,7.64
2023-02-19T20:13:49.923Z,7.66
2023-02-19T20:16:16.394Z,7.66
2023-02-19T20:18:42.833Z,7.66
2023-02-19T20:21:10.613Z,7.66
2023-02-19T20:23:40.283Z,7.65
2023-02-19T20:26:07.333Z,7.64
2023-02-19T20:28:33.758Z,7.60
2023-02-19T20:31:00.531Z,7.60
2023-02-19T20:33:27.045Z,7.60
2023-02-19T20:35:53.459Z,7.58
2023-02-19T20:38:19.861Z,7.59
2023-02-19T20:40:46.366Z,7.59
2023-02-19T20:43:12.785Z,7.57
2023-02-19T20:45:40.891Z,7.54
2023-02-19T20:48:07.285Z,7.55
2023-02-19T20:50:33.666Z,7.55
2023-02-19T20:53:00.058Z,7.55
2023-02-19T20:55:26.520Z,7.53
2023-02-19T20:57:52.922Z,7.55
2023-02-19T21:00:19.888Z,7.56
2023-02-19T21:02:46.382Z,7.55
2023-02-19T21:05:13.450Z,7.56
2023-02-19T21:07:39.928Z,7.56
2023-02-19T21:10:06.869Z,7.56
2023-02-19T21:12:33.793Z,7.54
2023-02-19T21:15:00.204Z,7.57
2023-02-19T21:17:26.660Z,7.57
2023-02-19T21:19:53.211Z,7.58
2023-02-19T21:22:19.655Z,7.58
2023-02-19T21:24:49.495Z,7.57
2023-02-19T21:27:15.917Z,7.56
2023-02-19T21:29:42.295Z,7.56
2023-02-19T21:32:08.777Z,7.55
2023-02-19T21:34:35.293Z,7.50
2023-02-19T21:37:01.673Z,7.57
2023-02-19T21:39:28.124Z,7.55
2023-02-19T21:41:54.615Z,7.57
2023-02-19T21:44:21.638Z,7.52
2023-02-19T21:46:48.394Z,7.56
2023-02-19T21:49:14.885Z,7.57
2023-02-19T21:51:43.766Z,7.58
2023-02-19T21:54:15.488Z,7.58
2023-02-19T21:56:41.999Z,7.60
2023-02-19T21:59:08.625Z,7.61
2023-02-19T22:01:40.416Z,7.60
2023-02-19T22:04:07.687Z,7.55
2023-02-19T22:06:34.573Z,7.56
2023-02-19T22:09:01.580Z,7.54
2023-02-19T22:11:28.007Z,7.52
2023-02-19T22:13:54.401Z,7.53
2023-02-19T22:16:20.883Z,7.52
2023-02-19T22:18:52.680Z,7.52
2023-02-19T22:21:19.973Z,7.51
2023-02-19T22:23:47.879Z,7.51
2023-02-19T22:26:22.435Z,7.51
2023-02-19T22:28:49.021Z,7.49
2023-02-19T22:31:17.548Z,7.51
2023-02-19T22:33:44.015Z,7.48
2023-02-19T22:36:14.678Z,7.48
2023-02-19T22:38:41.085Z,7.47
2023-02-19T22:41:07.541Z,7.49
2023-02-19T22:43:33.954Z,7.50
2023-02-19T22:46:00.423Z,7.49
2023-02-19T22:48:30.147Z,7.52
2023-02-19T22:50:58.752Z,7.50
2023-02-19T22:53:25.327Z,7.53
2023-02-19T22:55:51.708Z,7.52
2023-02-19T22:58:18.112Z,7.53
2023-02-19T23:00:44.514Z,7.53
2023-02-19T23:03:10.953Z,7.53
2023-02-19T23:05:37.357Z,7.55
2023-02-19T23:08:03.936Z,7.54
2023-02-19T23:10:30.329Z,7.53
2023-02-19T23:12:56.737Z,7.53
2023-02-19T23:15:23.111Z,7.55
2023-02-19T23:17:49.571Z,7.56
2023-02-19T23:20:16.080Z,7.54
2023-02-19T23:22:43.540Z,7.54
2023-02-19T23:25:09.925Z,7.53
2023-02-19T23:27:36.333Z,7.53
2023-02-19T23:30:02.924Z,7.53
2023-02-19T23:32:29.367Z,7.52
2023-02-19T23:34:55.749Z,7.52
2023-02-19T23:37:22.168Z,7.52
2023-02-19T23:39:48.576Z,7.51
2023-02-19T23:42:18.888Z,7.50
2023-02-19T23:44:48.664Z,7.49
2023-02-19T23:47:15.144Z,7.50
2023-02-19T23:49:41.971Z,7.49
2023-02-19T23:52:08.483Z,7.48
2023-02-19T23:54:35.026Z,7.46
2023-02-19T23:57:01.509Z,7.39
2023-02-19T23:59:27.977Z,7.44
